Terminal Aerodrome Forecast
Issued by NWS

Home | Current Version | Previous Version | Text Only | Print | Product List | Glossary On
Versions: 1 2 3 4 5 6 7 8 9 10 11 12 13
987
FTUS42 KMHX 251148
TAFISO
TAF
KISO 251148Z 2512/2612 01006KT P6SM BKN016
     FM251500 04009KT P6SM BKN015
     FM251900 04011KT P6SM BKN025
     FM260400 02009KT P6SM BKN010
      AMD LTD TO CLD VIS AND WIND=

USA.gov is the U.S. government's official web portal to all federal, state and local government web resources and services.